Time;durP1;ratioP1;P1;durP2;ratioP2;P2;SDS_P1;SDS_P2;PMS_P1;PMS_P2;Temp;Humidity;BMP_temperature;BMP_pressure;BME280_temperature;BME280_humidity;BME280_pressure;Samples;Min_cycle;Max_cycle;Signal;HPM_P1;HPM_P2
2022/06/02 00:01:33;;;;;;;3.30;1.10;;;;;;;9.51;73.09;100959.75;5011068;28;20499;-76
2022/06/02 00:04:55;;;;;;;4.82;1.35;;;;;;;9.39;73.20;100964.63;4970254;28;20406;-76
2022/06/02 00:08:19;;;;;;;3.10;1.10;;;;;;;9.21;73.82;100958.38;4970311;28;20050;-76
2022/06/02 00:11:32;;;;;;;2.83;1.65;;;;;;;9.28;73.33;100970.25;4970025;28;20065;-76
2022/06/02 00:14:54;;;;;;;;;;;;;;;9.27;73.38;100968.56;4970175;28;20513;-76
2022/06/02 00:18:26;;;;;;;2.42;1.00;;;;;;;9.05;74.15;100976.38;4970160;28;19961;-76
2022/06/02 00:21:38;;;;;;;2.05;0.93;;;;;;;8.90;74.96;100977.81;4970138;28;20274;-76
2022/06/02 00:25:01;;;;;;;1.77;0.93;;;;;;;8.95;75.13;100975.91;4970005;28;20052;-76
2022/06/02 00:28:11;;;;;;;3.00;1.23;;;;;;;8.99;74.45;100980.06;4969592;28;20474;-76
2022/06/02 00:31:57;;;;;;;3.55;1.40;;;;;;;9.18;74.04;100974.16;4958145;28;20058;-76
2022/06/02 00:35:30;;;;;;;2.40;1.10;;;;;;;9.43;72.42;100972.25;4965096;28;20070;-76
2022/06/02 00:38:37;;;;;;;2.85;1.13;;;;;;;9.24;73.00;100979.97;4968314;28;20516;-76
2022/06/02 00:42:05;;;;;;;2.60;1.27;;;;;;;8.91;74.24;100982.16;4969923;28;20098;-76
2022/06/02 00:45:13;;;;;;;3.50;1.30;;;;;;;9.01;74.32;100985.25;4969972;28;20514;-76
2022/06/02 00:48:41;;;;;;;2.58;1.02;;;;;;;8.98;74.32;100988.81;4970490;28;20070;-76
2022/06/02 00:51:49;;;;;;;3.15;1.20;;;;;;;8.71;75.17;101001.16;4957380;28;20118;-75
2022/06/02 00:58:30;;;;;;;3.50;1.27;;;;;;;8.64;75.41;100998.81;4968312;28;20058;-76
2022/06/02 01:01:36;;;;;;;4.00;1.10;;;;;;;8.54;75.63;101004.34;4969750;28;20097;-76
2022/06/02 01:04:43;;;;;;;2.95;1.02;;;;;;;8.71;75.09;101005.50;4971242;28;20418;-76
2022/06/02 01:07:58;;;;;;;3.13;0.93;;;;;;;8.85;73.90;101005.84;4965047;28;20520;-76
2022/06/02 01:11:06;;;;;;;3.83;1.40;;;;;;;8.53;74.44;101007.88;4973208;28;20459;-76
2022/06/02 01:14:10;;;;;;;2.83;1.30;;;;;;;8.47;74.81;101005.47;4973254;28;20075;-76
2022/06/02 01:17:39;;;;;;;3.28;1.50;;;;;;;8.47;74.91;101015.06;4969126;28;20065;-76
2022/06/02 01:20:58;;;;;;;2.03;1.00;;;;;;;8.74;73.65;101021.03;4956702;28;20105;-76
2022/06/02 01:24:25;;;;;;;2.22;1.10;;;;;;;8.61;74.31;101024.09;4972936;28;20521;-76
2022/06/02 01:27:56;;;;;;;2.85;1.17;;;;;;;8.56;74.64;101023.41;4972705;28;20041;-76
2022/06/02 01:31:25;;;;;;;4.80;1.27;;;;;;;8.36;75.65;101020.63;4972179;28;20050;-76
2022/06/02 01:34:43;;;;;;;2.40;1.17;;;;;;;8.41;75.27;101023.94;4972663;28;20181;-76
2022/06/02 01:38:04;;;;;;;2.78;1.30;;;;;;;8.21;75.70;101028.97;4972300;28;20505;-76
2022/06/02 01:41:23;;;;;;;2.53;1.40;;;;;;;8.18;75.56;101040.34;4975313;28;20117;-76
2022/06/02 01:44:55;;;;;;;2.70;1.33;;;;;;;8.06;76.32;101043.34;4976342;28;20054;-75
2022/06/02 01:48:18;;;;;;;2.78;1.30;;;;;;;8.24;74.48;101047.09;4969491;28;20057;-76
2022/06/02 01:51:43;;;;;;;2.15;1.00;;;;;;;8.42;74.04;101038.66;4976042;28;20050;-76
2022/06/02 01:55:02;;;;;;;5.28;1.50;;;;;;;8.11;75.51;101041.47;4976077;28;20410;-76
2022/06/02 01:58:24;;;;;;;2.25;1.50;;;;;;;8.05;75.61;101042.50;4969868;28;20130;-76
2022/06/02 02:01:39;;;;;;;4.63;1.20;;;;;;;8.06;75.56;101044.22;4974093;28;20049;-76
2022/06/02 02:05:13;;;;;;;4.07;1.20;;;;;;;8.08;75.08;101045.03;4976127;28;20054;-76
2022/06/02 02:08:34;;;;;;;4.53;1.70;;;;;;;8.07;75.09;101053.75;4969886;28;20105;-76
2022/06/02 02:11:53;;;;;;;2.72;1.20;;;;;;;7.99;75.86;101047.06;4975696;28;20317;-76
2022/06/02 02:15:25;;;;;;;3.45;1.33;;;;;;;8.05;75.61;101050.31;4975711;28;20097;-76
2022/06/02 02:19:18;;;;;;;2.58;1.40;;;;;;;7.90;76.01;101048.22;4968856;28;20101;-76
2022/06/02 02:22:40;;;;;;;2.90;1.40;;;;;;;7.58;76.77;101055.31;4975761;28;20454;-76
2022/06/02 02:25:51;;;;;;;2.45;1.10;;;;;;;7.90;76.29;101053.44;4975378;28;20101;-76
2022/06/02 02:29:13;;;;;;;2.72;1.17;;;;;;;8.03;74.14;101057.31;4975560;28;20540;-76
2022/06/02 02:32:45;;;;;;;3.35;1.50;;;;;;;8.03;74.33;101059.94;4974301;28;20046;-76
2022/06/02 02:35:54;;;;;;;3.20;1.45;;;;;;;7.76;75.43;101056.50;4974665;28;20607;-76
2022/06/02 02:39:16;;;;;;;3.15;1.50;;;;;;;7.57;75.98;101071.00;4975167;28;20056;-76
2022/06/02 02:42:35;;;;;;;2.63;1.30;;;;;;;7.66;75.96;101066.34;4975122;28;20045;-76
2022/06/02 02:46:07;;;;;;;4.28;1.35;;;;;;;7.86;73.83;101067.47;4974422;28;20585;-76
2022/06/02 02:49:17;;;;;;;2.80;1.42;;;;;;;8.04;73.06;101073.81;4974715;28;20053;-76
2022/06/02 02:52:33;;;;;;;2.22;1.15;;;;;;;8.27;71.89;101073.91;4974756;28;20057;-76
2022/06/02 02:55:39;;;;;;;2.88;1.33;;;;;;;8.37;71.82;101070.06;4974966;28;20062;-76
2022/06/02 02:59:15;;;;;;;3.55;1.52;;;;;;;8.15;72.91;101071.72;4974318;28;20094;-76
2022/06/02 03:03:06;;;;;;;3.95;1.75;;;;;;;7.52;76.05;101084.13;4971558;28;20427;-76
2022/06/02 03:06:21;;;;;;;5.03;1.75;;;;;;;7.63;75.18;101087.25;4954766;28;20058;-76
2022/06/02 03:09:42;;;;;;;2.55;1.27;;;;;;;7.84;73.99;101079.66;4974759;28;20110;-76
2022/06/02 03:13:16;;;;;;;4.78;1.83;;;;;;;7.76;73.80;101084.28;4973756;28;20097;-76
2022/06/02 03:16:22;;;;;;;2.75;1.40;;;;;;;7.66;74.29;101086.31;4974514;28;20113;-76
2022/06/02 03:19:58;;;;;;;4.68;1.70;;;;;;;7.43;75.94;101089.59;4974246;28;20049;-76
2022/06/02 03:23:35;;;;;;;4.20;1.30;;;;;;;7.60;75.21;101092.56;4974595;28;20077;-76
2022/06/02 03:26:57;;;;;;;3.08;1.25;;;;;;;7.86;73.75;101103.91;4973868;28;20081;-76
2022/06/02 03:30:18;;;;;;;4.05;1.30;;;;;;;7.89;72.86;101106.41;4974642;28;20129;-76
2022/06/02 03:33:50;;;;;;;3.38;1.10;;;;;;;7.84;73.64;101110.91;4973461;28;20414;-76
2022/06/02 03:37:20;;;;;;;4.72;1.60;;;;;;;7.79;73.52;101115.44;4973112;28;20074;-76
2022/06/02 03:40:45;;;;;;;2.58;1.50;;;;;;;7.76;72.93;101113.75;4971054;28;20122;-76
2022/06/02 03:43:53;;;;;;;3.95;1.52;;;;;;;7.23;75.61;101119.66;4974177;28;20038;-76
2022/06/02 03:47:24;;;;;;;2.90;1.50;;;;;;;7.28;75.81;101122.16;4973753;28;20049;-76
2022/06/02 03:50:37;;;;;;;2.63;1.33;;;;;;;7.15;76.62;101113.84;4974174;28;20047;-76
2022/06/02 03:54:07;;;;;;;2.85;1.42;;;;;;;7.52;74.99;101117.94;4974107;28;20050;-76
2022/06/02 03:57:33;;;;;;;4.95;1.42;;;;;;;7.52;74.74;101117.94;4972857;28;20281;-76
2022/06/02 04:01:01;;;;;;;4.35;1.50;;;;;;;7.33;75.50;101125.44;4972852;28;20046;-76
2022/06/02 04:04:16;;;;;;;4.30;1.67;;;;;;;7.55;75.64;101123.06;4972190;28;20045;-76
2022/06/02 04:07:30;;;;;;;4.25;1.90;;;;;;;7.74;74.88;101127.72;4973428;28;20098;-76
2022/06/02 04:10:47;;;;;;;4.05;1.80;;;;;;;7.49;75.78;101131.06;4972602;28;20061;-76
2022/06/02 04:14:00;;;;;;;3.60;1.60;;;;;;;7.67;75.26;101140.91;4973694;28;20053;-75
2022/06/02 04:17:42;;;;;;;2.67;1.88;;;;;;;7.32;76.87;101144.56;4973179;28;20094;-76
2022/06/02 04:21:15;;;;;;;3.25;1.73;;;;;;;7.41;76.96;101149.50;4966198;28;20049;-75
2022/06/02 04:24:51;;;;;;;5.40;2.00;;;;;;;7.51;77.51;101152.69;4972796;28;20573;-77
2022/06/02 04:28:11;;;;;;;3.22;2.00;;;;;;;7.59;77.22;101142.03;4973621;28;20106;-75
2022/06/02 04:31:52;;;;;;;4.00;2.00;;;;;;;7.80;75.45;101141.41;4973373;28;20426;-75
2022/06/02 04:35:14;;;;;;;3.05;2.05;;;;;;;7.52;76.51;101138.78;4973536;28;20061;-76
2022/06/02 04:38:28;;;;;;;3.63;1.88;;;;;;;7.87;75.23;101142.06;4974073;28;20141;-75
2022/06/02 04:41:54;;;;;;;3.22;2.22;;;;;;;7.78;75.69;101137.13;4988266;28;20121;-76
2022/06/02 04:45:12;;;;;;;3.17;1.90;;;;;;;7.90;75.58;101139.34;4992871;28;20109;-75
2022/06/02 04:48:28;;;;;;;3.08;1.65;;;;;;;8.23;74.44;101141.78;4993015;28;20044;-76
2022/06/02 04:51:35;;;;;;;5.53;2.00;;;;;;;8.15;73.90;101142.88;4992804;28;20560;-76
2022/06/02 04:55:03;;;;;;;3.25;1.95;;;;;;;7.92;74.69;101147.97;4992289;28;20049;-76
2022/06/02 04:58:13;;;;;;;2.70;1.50;;;;;;;7.94;74.30;101153.97;4992109;28;20410;-77
2022/06/02 05:01:46;;;;;;;3.85;1.70;;;;;;;8.03;74.23;101158.91;4992437;28;20552;-77
2022/06/02 05:05:01;;;;;;;2.90;1.65;;;;;;;8.04;74.26;101157.16;4992861;28;20049;-76
2022/06/02 05:08:49;;;;;;;4.50;2.15;;;;;;;8.11;74.63;101166.50;4992637;28;20297;-77
2022/06/02 05:12:13;;;;;;;5.35;1.35;;;;;;;8.20;74.80;101162.72;4980419;28;20061;-77
2022/06/02 05:15:28;;;;;;;2.72;1.35;;;;;;;8.23;74.73;101157.41;4993881;28;20058;-77
2022/06/02 05:19:05;;;;;;;3.50;1.90;;;;;;;8.01;75.84;101158.13;4996463;28;20174;-77
2022/06/02 05:22:28;;;;;;;2.92;1.77;;;;;;;7.82;76.93;101156.97;4996264;28;20040;-77
2022/06/02 05:25:48;;;;;;;4.53;2.20;;;;;;;7.83;77.33;101163.88;4996462;28;20477;-77
2022/06/02 05:29:04;;;;;;;3.97;2.33;;;;;;;8.01;76.96;101163.31;4984116;28;20053;-77
2022/06/02 05:32:21;;;;;;;4.10;2.10;;;;;;;7.94;77.60;101167.00;5010802;28;20458;-75
2022/06/02 05:35:42;;;;;;;3.53;2.08;;;;;;;7.82;78.70;101170.00;5015526;28;20425;-76
2022/06/02 05:39:05;;;;;;;3.50;2.28;;;;;;;7.86;79.25;101171.59;5015549;28;20555;-76
2022/06/02 05:42:14;;;;;;;4.72;1.92;;;;;;;8.24;78.27;101177.38;5015415;28;20068;-76
2022/06/02 05:45:56;;;;;;;3.78;2.00;;;;;;;8.47;77.63;101172.28;5015299;28;20045;-76
2022/06/02 05:49:38;;;;;;;4.88;2.15;;;;;;;8.51;77.76;101170.41;5015610;28;20100;-76
2022/06/02 05:52:50;;;;;;;3.22;1.83;;;;;;;8.90;76.72;101173.41;5015326;28;20052;-76
2022/06/02 05:56:14;;;;;;;6.37;1.93;;;;;;;8.89;76.70;101176.09;5015293;28;20041;-76
2022/06/02 05:59:40;;;;;;;3.80;1.88;;;;;;;8.91;77.75;101176.91;5015306;28;20048;-76
2022/06/02 06:03:05;;;;;;;3.67;2.13;;;;;;;9.00;77.29;101176.56;5014989;28;20160;-76
2022/06/02 06:06:36;;;;;;;4.10;1.90;;;;;;;9.21;76.97;101165.34;5015161;28;20048;-76
2022/06/02 06:09:49;;;;;;;6.65;2.22;;;;;;;9.35;76.67;101166.59;5014997;28;20056;-75
2022/06/02 06:13:10;;;;;;;5.13;1.90;;;;;;;9.54;75.97;101168.50;5002422;28;20045;-75
2022/06/02 06:16:44;;;;;;;3.20;1.90;;;;;;;9.73;76.92;101181.69;5013780;28;20125;-75
2022/06/02 06:20:26;;;;;;;4.78;2.28;;;;;;;10.00;75.27;101178.91;5014861;28;20044;-75
2022/06/02 06:23:45;;;;;;;4.22;2.28;;;;;;;10.02;75.12;101183.19;5005401;28;20060;-75
2022/06/02 06:27:06;;;;;;;4.22;2.35;;;;;;;10.06;75.18;101183.91;5013920;28;20065;-75
2022/06/02 06:30:19;;;;;;;4.47;2.53;;;;;;;10.20;75.34;101192.03;5002751;28;20040;-75
2022/06/02 06:33:35;;;;;;;5.90;2.10;;;;;;;10.32;74.89;101195.13;5014498;28;20449;-75
2022/06/02 06:37:16;;;;;;;3.47;2.00;;;;;;;10.50;74.97;101191.75;5015558;28;20062;-75
2022/06/02 06:40:39;;;;;;;4.95;2.72;;;;;;;10.62;74.54;101193.00;5015161;28;20405;-76
2022/06/02 06:44:27;;;;;;;4.63;2.30;;;;;;;10.70;74.06;101196.16;5015431;28;20048;-74
2022/06/02 06:47:58;;;;;;;6.93;2.17;;;;;;;10.88;73.41;101200.59;4996578;28;20084;-75
2022/06/02 06:51:23;;;;;;;4.55;2.97;;;;;;;11.00;73.54;101206.22;5014349;28;20508;-75
2022/06/02 06:54:44;;;;;;;6.47;3.05;;;;;;;11.17;73.11;101198.50;5014456;28;20519;-75
2022/06/02 06:57:57;;;;;;;6.88;4.95;;;;;;;11.32;72.43;101189.09;5000386;28;20125;-75
2022/06/02 07:01:25;;;;;;;8.75;6.03;;;;;;;11.43;72.77;101204.34;5012157;28;20052;-75
2022/06/02 07:04:47;;;;;;;7.63;5.63;;;;;;;11.52;72.71;101202.16;5012230;28;20128;-75
2022/06/02 07:08:33;;;;;;;8.32;5.80;;;;;;;11.66;72.48;101200.66;5012752;28;20513;-75
2022/06/02 07:15:23;;;;;;;9.45;7.93;;;;;;;11.81;71.42;101176.38;4953015;28;20100;-75
2022/06/02 07:18:45;;;;;;;11.43;9.38;;;;;;;11.92;70.88;101179.38;5013684;28;20099;-75
2022/06/02 07:21:59;;;;;;;11.82;9.18;;;;;;;12.07;71.13;101193.53;5013697;28;20045;-75
2022/06/02 07:25:07;;;;;;;10.50;9.40;;;;;;;12.16;70.56;101187.00;5013482;28;20045;-76
2022/06/02 07:28:32;;;;;;;12.68;10.25;;;;;;;12.28;70.87;101181.13;5001358;28;20548;-75
2022/06/02 07:31:50;;;;;;;11.77;9.10;;;;;;;12.40;69.94;101171.81;5013416;28;20065;-76
2022/06/02 07:35:30;;;;;;;11.93;10.75;;;;;;;12.43;68.68;101175.13;5013277;28;20061;-76
2022/06/02 07:39:07;;;;;;;14.32;11.32;;;;;;;12.62;68.54;101177.69;5012706;28;20049;-76
2022/06/02 07:42:39;;;;;;;15.85;10.23;;;;;;;12.78;67.28;101175.97;5014188;28;20139;-76
2022/06/02 07:46:24;;;;;;;14.55;9.65;;;;;;;13.00;67.30;101165.22;5014086;28;20116;-75
2022/06/02 07:49:52;;;;;;;15.90;10.95;;;;;;;13.15;64.84;101162.75;5014120;28;20046;-74
2022/06/02 07:53:25;;;;;;;12.15;9.73;;;;;;;13.26;65.54;101153.38;5012823;28;20045;-76
2022/06/02 07:57:07;;;;;;;14.02;10.50;;;;;;;13.32;64.33;101156.63;5013122;28;20104;-76
2022/06/02 08:00:20;;;;;;;10.50;9.45;;;;;;;13.44;64.54;101163.84;5001625;28;20406;-76
2022/06/02 08:03:24;;;;;;;;;;;;;;;13.52;63.48;101166.88;5013458;28;20052;-76
2022/06/02 08:06:46;;;;;;;11.57;9.43;;;;;;;13.55;62.31;101173.75;5017025;28;20380;-76
2022/06/02 08:10:22;;;;;;;11.30;9.45;;;;;;;13.53;62.39;101168.59;5018572;28;20117;-75
2022/06/02 08:13:37;;;;;;;10.05;7.78;;;;;;;13.70;62.20;101173.78;4995369;28;20060;-75
2022/06/02 08:17:00;;;;;;;9.00;8.10;;;;;;;13.81;61.27;101164.44;5013037;28;20098;-76
2022/06/02 08:20:16;;;;;;;9.65;7.88;;;;;;;13.72;61.06;101156.16;5013047;28;20190;-76
2022/06/02 08:23:28;;;;;;;9.57;8.15;;;;;;;13.79;59.77;101163.69;5012478;28;20040;-75
2022/06/02 08:26:49;;;;;;;11.35;7.82;;;;;;;13.95;59.60;101167.16;5012746;28;20133;-76
2022/06/02 08:30:05;;;;;;;10.38;7.78;;;;;;;14.16;59.33;101165.09;5012559;28;20160;-76
2022/06/02 08:33:36;;;;;;;7.57;6.72;;;;;;;14.23;58.11;101162.94;5012482;28;20052;-75
2022/06/02 08:37:21;;;;;;;8.88;7.43;;;;;;;14.05;57.36;101170.97;5012545;28;20520;-76
2022/06/02 08:40:41;;;;;;;8.43;6.03;;;;;;;14.04;58.04;101164.03;5012935;28;20137;-76
2022/06/02 08:44:24;;;;;;;9.85;6.53;;;;;;;14.31;58.43;101177.34;5012381;28;20045;-76
2022/06/02 08:47:58;;;;;;;6.53;5.90;;;;;;;14.39;56.65;101169.03;5012325;28;20409;-76
2022/06/02 08:51:28;;;;;;;8.45;6.05;;;;;;;14.34;56.34;101171.09;5016196;28;20049;-76
2022/06/02 08:54:46;;;;;;;10.23;5.93;;;;;;;14.57;56.24;101170.63;5004056;28;20053;-76
2022/06/02 08:58:22;;;;;;;7.03;5.57;;;;;;;14.69;56.94;101171.69;5016307;28;20076;-75
2022/06/02 09:01:37;;;;;;;6.25;4.82;;;;;;;14.72;55.79;101175.94;5016210;28;20130;-76
2022/06/02 09:05:20;;;;;;;7.85;4.55;;;;;;;14.71;54.89;101171.56;5016198;28;20056;-76
2022/06/02 09:09:02;;;;;;;5.13;3.42;;;;;;;14.90;51.74;101169.56;4957657;28;20042;-76
2022/06/02 09:12:06;;;;;;;4.83;3.50;;;;;;;14.95;52.44;101172.75;5001195;28;20045;-76
2022/06/02 09:15:12;;;;;;;4.05;3.08;;;;;;;15.04;52.01;101168.72;5015958;28;20045;-76
2022/06/02 09:18:55;;;;;;;4.57;3.67;;;;;;;14.89;50.72;101167.84;5015976;28;20045;-76
2022/06/02 09:22:12;;;;;;;6.57;2.20;;;;;;;15.17;49.30;101163.56;5015756;28;20052;-76
2022/06/02 09:25:32;;;;;;;6.15;2.95;;;;;;;15.18;48.67;101163.44;5015662;28;20096;-76
2022/06/02 09:28:47;;;;;;;3.97;2.17;;;;;;;15.06;48.98;101162.44;5015925;28;20057;-75
2022/06/02 09:32:08;;;;;;;3.60;1.98;;;;;;;15.31;48.50;101163.53;5015518;28;20049;-76
2022/06/02 09:35:22;;;;;;;5.35;1.63;;;;;;;15.54;45.84;101157.69;5015248;28;20064;-75
2022/06/02 09:39:03;;;;;;;6.30;1.60;;;;;;;15.77;44.19;101155.44;5015825;28;20049;-76
2022/06/02 09:42:19;;;;;;;4.13;1.15;;;;;;;15.62;43.17;101159.00;5015789;28;20048;-76
2022/06/02 09:46:03;;;;;;;2.53;1.00;;;;;;;15.69;44.33;101162.97;5015356;28;20413;-76
2022/06/02 09:49:39;;;;;;;4.97;1.15;;;;;;;15.78;43.16;101163.22;5015181;28;20173;-75
2022/06/02 09:52:57;;;;;;;4.45;1.92;;;;;;;15.73;42.77;101160.06;5008893;28;20559;-75
2022/06/02 09:56:30;;;;;;;2.75;0.60;;;;;;;15.85;39.88;101163.66;5015284;28;20141;-75
2022/06/02 09:59:41;;;;;;;2.42;0.82;;;;;;;16.12;40.73;101153.16;5015341;28;20550;-76
2022/06/02 10:03:00;;;;;;;3.63;1.40;;;;;;;16.31;41.91;101155.41;5015186;28;20062;-76
2022/06/02 10:06:19;;;;;;;3.70;1.05;;;;;;;16.18;42.35;101144.81;5014910;28;20057;-76
2022/06/02 10:10:02;;;;;;;3.03;1.33;;;;;;;16.26;42.08;101145.16;5014995;28;20473;-76
2022/06/02 10:13:17;;;;;;;3.40;1.10;;;;;;;16.12;43.28;101150.50;5014783;28;20130;-76
2022/06/02 10:16:53;;;;;;;3.45;1.20;;;;;;;16.32;44.08;101143.91;5014822;28;20064;-76
2022/06/02 10:20:22;;;;;;;3.78;1.90;;;;;;;16.34;44.12;101151.72;5014722;28;20053;-75
2022/06/02 10:24:00;;;;;;;6.20;1.80;;;;;;;16.41;45.30;101135.38;5014467;28;20057;-76
2022/06/02 10:27:30;;;;;;;3.42;1.30;;;;;;;16.41;45.56;101132.72;5014614;28;20045;-76
2022/06/02 10:30:51;;;;;;;3.08;1.38;;;;;;;16.42;44.33;101121.22;5014578;28;20504;-76
2022/06/02 10:34:20;;;;;;;5.03;2.00;;;;;;;16.71;44.42;101129.81;5014025;28;20406;-76
2022/06/02 10:38:20;;;;;;;3.22;2.10;;;;;;;16.93;44.65;101120.44;5014654;28;20080;-75
2022/06/02 10:41:40;;;;;;;5.32;2.00;;;;;;;16.91;43.02;101115.28;4934574;29;20043;-75
2022/06/02 10:44:55;;;;;;;2.53;1.45;;;;;;;16.82;43.67;101121.19;4951268;28;20410;-76
2022/06/02 10:48:27;;;;;;;4.28;1.25;;;;;;;17.18;43.10;101116.94;5013982;28;20080;-76
2022/06/02 10:52:08;;;;;;;4.35;1.50;;;;;;;17.28;42.14;101114.47;5001919;28;20137;-75
2022/06/02 10:55:18;;;;;;;3.03;1.08;;;;;;;17.37;42.15;101125.25;5014395;28;20458;-76
2022/06/02 10:58:34;;;;;;;2.85;1.33;;;;;;;17.47;40.45;101112.22;5014074;28;20072;-76
2022/06/02 11:02:26;;;;;;;2.78;1.17;;;;;;;17.33;40.68;101100.00;5013988;28;20040;-76
2022/06/02 11:06:06;;;;;;;2.42;1.10;;;;;;;17.41;41.16;101102.06;5014306;28;20115;-76
2022/06/02 11:09:31;;;;;;;2.00;0.88;;;;;;;17.26;41.56;101111.97;5001852;28;20092;-76
2022/06/02 11:13:26;;;;;;;2.85;1.05;;;;;;;17.57;41.46;101109.75;5013757;28;20044;-76
2022/06/02 11:17:03;;;;;;;3.47;0.90;;;;;;;17.48;40.34;101105.94;5013529;28;20041;-76
2022/06/02 11:20:40;;;;;;;4.07;1.02;;;;;;;17.87;40.79;101102.25;5013039;28;20100;-77
2022/06/02 11:24:32;;;;;;;2.22;0.90;;;;;;;18.20;40.67;101092.75;5001776;28;20512;-77
2022/06/02 11:27:57;;;;;;;2.90;0.95;;;;;;;18.10;38.76;101082.03;5013540;28;20511;-77
2022/06/02 11:31:21;;;;;;;2.30;0.80;;;;;;;18.19;40.48;101085.78;5013549;28;20559;-77
2022/06/02 11:34:43;;;;;;;5.90;0.90;;;;;;;18.30;38.63;101080.50;4993267;28;20305;-77
2022/06/02 11:38:14;;;;;;;2.85;1.17;;;;;;;18.32;40.49;101080.41;5013133;28;20096;-77
2022/06/02 11:41:35;;;;;;;4.25;1.10;;;;;;;18.24;37.36;101083.63;5013526;28;20036;-77
2022/06/02 11:45:00;;;;;;;1.73;0.80;;;;;;;18.25;36.23;101079.16;5013262;28;20058;-77
2022/06/02 11:48:21;;;;;;;3.63;0.75;;;;;;;17.94;38.22;101067.41;5014701;28;20051;-77
2022/06/02 11:51:46;;;;;;;4.88;1.10;;;;;;;18.23;37.94;101071.34;5015082;28;20064;-77
2022/06/02 11:55:03;;;;;;;3.40;1.15;;;;;;;18.38;37.27;101060.53;5015943;28;20504;-75
2022/06/02 11:58:27;;;;;;;3.88;0.60;;;;;;;18.51;36.47;101063.97;5013209;28;20056;-76
2022/06/02 12:01:52;;;;;;;5.57;0.50;;;;;;;18.41;35.23;101062.94;5012757;28;20045;-76
2022/06/02 12:05:29;;;;;;;2.65;0.73;;;;;;;18.50;34.94;101057.78;5012772;28;20049;-77
2022/06/02 12:09:00;;;;;;;1.98;0.55;;;;;;;18.35;33.62;101051.88;5013121;28;20056;-75
2022/06/02 12:12:33;;;;;;;1.33;0.40;;;;;;;18.28;32.57;101058.63;5012243;28;20060;-76
2022/06/02 12:15:57;;;;;;;3.38;0.60;;;;;;;18.47;32.91;101057.19;5004114;28;20069;-76
2022/06/02 12:19:04;;;;;;;1.67;0.40;;;;;;;18.58;33.13;101043.97;5001817;28;20163;-75
2022/06/02 12:22:27;;;;;;;1.77;0.30;;;;;;;18.69;33.63;101046.63;5015416;28;20044;-76
2022/06/02 12:25:42;;;;;;;1.42;0.57;;;;;;;18.78;33.37;101039.78;5017448;28;20084;-75
2022/06/02 12:29:23;;;;;;;2.33;0.77;;;;;;;19.27;33.79;101034.09;5012133;28;20048;-76
2022/06/02 12:32:56;;;;;;;1.80;0.65;;;;;;;19.87;32.70;101031.84;5020529;28;20057;-76
2022/06/02 12:36:06;;;;;;;2.35;0.70;;;;;;;19.67;33.08;101028.19;5008925;28;20129;-76
2022/06/02 12:39:34;;;;;;;3.17;0.77;;;;;;;20.38;34.42;101016.94;5012640;28;20487;-76
2022/06/02 12:43:04;;;;;;;1.75;0.50;;;;;;;20.88;32.46;101017.06;4992217;28;20415;-76
2022/06/02 12:46:40;;;;;;;2.97;0.50;;;;;;;21.01;32.94;101024.78;4967515;28;20550;-76
2022/06/02 12:50:11;;;;;;;1.35;0.60;;;;;;;21.40;31.62;101019.59;5002034;28;20078;-77
2022/06/02 12:53:46;;;;;;;2.50;0.60;;;;;;;20.84;32.80;101013.00;4998807;28;20049;-76
2022/06/02 12:57:08;;;;;;;1.92;0.40;;;;;;;20.57;32.20;101017.06;4978228;28;20098;-75
2022/06/02 13:00:25;;;;;;;5.40;0.60;;;;;;;20.53;31.68;101009.50;4981430;28;20049;-76
2022/06/02 13:04:03;;;;;;;1.98;0.40;;;;;;;21.38;30.64;101006.44;4983342;28;20074;-76
2022/06/02 13:07:31;;;;;;;2.13;0.50;;;;;;;21.38;31.62;101016.22;4987411;28;20045;-77
2022/06/02 13:11:03;;;;;;;1.63;0.47;;;;;;;21.96;30.53;101001.09;4992965;28;20065;-77
2022/06/02 13:14:16;;;;;;;2.28;0.70;;;;;;;22.05;30.05;101005.56;4985966;28;20045;-77
2022/06/02 13:17:37;;;;;;;3.88;0.40;;;;;;;22.07;29.45;101000.09;4980282;28;20109;-76
2022/06/02 13:21:31;;;;;;;3.50;0.60;;;;;;;21.99;30.17;101003.47;5011746;28;20500;-76
2022/06/02 13:25:08;;;;;;;1.42;0.38;;;;;;;22.10;29.33;100993.63;4973613;28;20110;-76
2022/06/02 13:28:21;;;;;;;11.25;1.25;;;;;;;21.74;30.31;100993.41;4974782;28;20045;-75
2022/06/02 13:31:47;;;;;;;1.83;0.32;;;;;;;21.98;29.68;100993.78;4972752;28;20049;-76
2022/06/02 13:34:59;;;;;;;3.88;0.30;;;;;;;22.25;27.33;100995.72;4977491;28;20190;-76
2022/06/02 13:38:21;;;;;;;1.27;0.30;;;;;;;22.37;26.46;100985.75;5013728;28;20045;-77
2022/06/02 13:41:53;;;;;;;2.22;0.38;;;;;;;22.87;26.33;100990.69;5012278;28;20052;-76
2022/06/02 13:45:23;;;;;;;1.50;0.50;;;;;;;23.20;25.99;100991.13;4976293;28;20097;-77
2022/06/02 13:48:38;;;;;;;2.38;0.20;;;;;;;23.78;24.55;100980.00;4998855;28;20049;-77
2022/06/02 13:51:59;;;;;;;;;;;;;;;23.84;23.95;100979.38;5015636;28;20092;-76
2022/06/02 13:59:10;;;;;;;3.10;0.60;;;;;;;25.03;22.68;100970.63;5014742;28;20095;-77
2022/06/02 14:02:32;;;;;;;2.60;0.50;;;;;;;26.07;20.86;100969.19;4995561;28;20088;-76
2022/06/02 14:06:05;;;;;;;1.88;0.22;;;;;;;24.92;22.85;100962.91;5000680;28;20564;-79
2022/06/02 14:09:33;;;;;;;3.53;0.50;;;;;;;27.41;21.27;100963.78;4995683;28;20453;-77
2022/06/02 14:12:58;;;;;;;2.47;0.93;;;;;;;30.30;17.42;100951.50;4994925;28;20053;-78
2022/06/02 14:16:11;;;;;;;2.10;0.57;;;;;;;31.40;16.83;100952.31;4994930;28;20053;-78
2022/06/02 14:20:00;;;;;;;4.32;0.68;;;;;;;31.53;15.25;100951.50;4995187;28;20417;-77
2022/06/02 14:23:36;;;;;;;3.25;1.10;;;;;;;32.31;15.01;100942.66;4989997;28;20068;-77
2022/06/02 14:26:56;;;;;;;4.45;0.77;;;;;;;31.82;15.08;100946.69;4982982;28;20217;-78
2022/06/02 14:30:04;;;;;;;3.88;0.98;;;;;;;30.04;16.21;100937.84;4995154;28;20057;-77
2022/06/02 14:33:35;;;;;;;5.53;0.70;;;;;;;32.08;15.47;100933.13;4982996;28;20073;-78
2022/06/02 14:36:58;;;;;;;3.88;0.70;;;;;;;33.64;14.39;100923.78;4975597;28;20403;-77
2022/06/02 14:40:13;;;;;;;3.33;0.85;;;;;;;29.88;16.57;100936.28;4963554;28;20411;-77
2022/06/02 14:43:42;;;;;;;9.45;1.42;;;;;;;32.64;15.21;100926.28;4975233;28;20133;-78
2022/06/02 14:47:05;;;;;;;4.22;0.70;;;;;;;34.71;13.54;100923.41;4973864;28;20061;-79
2022/06/02 14:50:25;;;;;;;3.33;0.65;;;;;;;34.29;13.29;100930.63;4963573;28;20053;-79
2022/06/02 14:53:46;;;;;;;2.15;0.88;;;;;;;32.15;15.03;100928.53;4974995;28;20046;-78
2022/06/02 14:57:28;;;;;;;3.72;0.60;;;;;;;34.50;13.63;100919.31;4975172;28;20093;-79
2022/06/02 15:00:50;;;;;;;1.50;0.60;;;;;;;34.46;13.29;100905.34;4975363;28;20097;-79
2022/06/02 15:04:32;;;;;;;11.88;1.88;;;;;;;33.46;15.19;100913.66;4975294;28;20049;-78
2022/06/02 15:08:01;;;;;;;6.38;0.90;;;;;;;34.18;14.48;100911.34;4975717;28;20101;-78
2022/06/02 15:11:16;;;;;;;3.40;0.93;;;;;;;33.99;14.19;100907.75;4969333;28;20053;-78
2022/06/02 15:14:29;;;;;;;2.13;0.60;;;;;;;31.18;15.57;100911.09;4974320;28;20078;-78
2022/06/02 15:17:51;;;;;;;1.17;0.43;;;;;;;33.44;15.06;100907.66;4974338;28;20063;-78
2022/06/02 15:21:10;;;;;;;2.08;0.50;;;;;;;32.68;15.68;100905.88;4974630;28;20053;-78
2022/06/02 15:24:35;;;;;;;20.50;1.17;;;;;;;32.52;16.27;100892.84;4974302;28;20513;-78
2022/06/02 15:27:53;;;;;;;3.17;0.68;;;;;;;33.58;15.40;100894.00;4974361;28;20098;-78
2022/06/02 15:31:05;;;;;;;2.17;0.60;;;;;;;32.31;15.98;100883.94;4974503;28;20054;-78
2022/06/02 15:34:21;;;;;;;1.65;0.52;;;;;;;32.78;15.90;100881.03;4977847;28;20624;-78
2022/06/02 15:38:02;;;;;;;2.58;0.70;;;;;;;32.21;16.24;100883.56;4994340;28;20065;-77
2022/06/02 15:41:33;;;;;;;1.20;0.50;;;;;;;32.80;15.79;100870.78;4992285;28;20112;-78
2022/06/02 15:45:10;;;;;;;3.33;0.45;;;;;;;31.46;16.91;100885.78;4993815;28;20060;-78
2022/06/02 15:48:32;;;;;;;2.72;0.50;;;;;;;30.25;18.06;100878.44;4992839;28;20048;-78
2022/06/02 15:51:48;;;;;;;1.30;0.40;;;;;;;32.36;16.23;100883.31;4993247;28;20057;-78
2022/06/02 15:55:13;;;;;;;0.85;0.40;;;;;;;32.41;16.51;100883.47;4993419;28;20104;-78
2022/06/02 15:58:27;;;;;;;2.53;0.55;;;;;;;30.35;17.25;100868.09;4992739;28;20526;-78
2022/06/02 16:01:52;;;;;;;1.40;0.40;;;;;;;27.01;20.70;100881.66;4993639;28;20061;-78
2022/06/02 16:05:31;;;;;;;1.10;0.40;;;;;;;26.17;22.26;100876.91;4993282;28;20049;-77
2022/06/02 16:12:29;;;;;;;1.08;0.30;;;;;;;25.39;22.84;100874.00;4993027;28;20136;-77